Erie, CO

10:43 PM MST on November 21, 2019 (GMT -0700)
Erie Municipal Airport

Weather History for KEIK - October, 2019

Change the Weather History Date:

Sunday, October 13, 2019

  Actual Average (WUND) Record (WUND)
Temperature  
Mean Temperature 50 °F -  
Max Temperature 74 °F - - (-1)
Min Temperature 26 °F - - (-1)
Degree Days  
Heating Degree Days 15    
Moisture  
Dew Point 18 °F    
Average Humidity 45    
Maximum Humidity 85    
Minimum Humidity 6    
Precipitation  
Precipitation 0.00 in - - ()
Sea Level Pressure  
Sea Level Pressure 30.02 in    
Wind  
Wind Speed 1 mph (SSE)    
Max Wind Speed 10 mph    
Max Gust Speed -    
Visibility 10 miles    
Events      
Averages and records for this station are not official NWS values.
T = Trace of Precipitation, MM = Missing Value Source: NWS Daily Summary

Daily Weather History Graph

Daily Weather History Graph

Search for Another Location

Airport or City:

Astronomy

Oct. 13, 2019 Rise Set
Actual Time 7:08 AM MDT 6:23 PM MDT
Civil Twilight 6:41 AM MDT 6:51 PM MDT
Nautical Twilight 6:09 AM MDT 7:22 PM MDT
Astronomical Twilight 5:38 AM MDT 7:53 PM MDT
Moon 6:47 PM MDT (10/13) 6:45 AM MDT (10/13)
Length of Visible Light 12h 09m
Length of Day
11h 15m
Full, 100% of the Moon is Illuminated
Oct 13
Full
Oct 13
Full
Oct 21
Last Quarter
Oct 27
New
Nov 4
First Quarter

Hourly Weather History & Observations

Time (MDT) Temp. Windchill Dew Point Humidity Pressure Visibility Wind Dir Wind Speed Gust Speed Precip Events Conditions
12:12 AM 33.3 °F - 27.3 °F 79% 30.02 in 10.0 mi Calm Calm - N/A   Clear
12:36 AM 31.5 °F - 26.8 °F 83% 30.03 in 10.0 mi Calm Calm - N/A   Clear
12:53 AM 30.7 °F - 26.2 °F 83% 30.03 in 10.0 mi Calm Calm - N/A   Clear
1:12 AM 32.0 °F - 25.9 °F 78% 30.02 in 10.0 mi Calm Calm - N/A   Clear
1:36 AM 29.5 °F - 25.5 °F 85% 30.03 in 10.0 mi Calm Calm - N/A   Clear
1:55 AM 30.2 °F 25.4 °F 24.6 °F 80% 30.03 in 10.0 mi SSW 4.6 mph - N/A   Clear
2:12 AM 31.6 °F - 24.1 °F 74% 30.04 in 10.0 mi Calm Calm - N/A   Clear
2:35 AM 29.8 °F - 24.1 °F 79% 30.04 in 10.0 mi Calm Calm - N/A   Clear
2:53 AM 30.7 °F - 23.9 °F 76% 30.04 in 10.0 mi Calm Calm - N/A   Clear
3:35 AM 29.8 °F 26.3 °F 23.9 °F 79% 30.03 in 10.0 mi SSW 3.5 mph - N/A   Clear
3:52 AM 29.7 °F - 23.4 °F 77% 30.03 in 10.0 mi Calm Calm - N/A   Clear
4:12 AM 30.9 °F 27.5 °F 23.4 °F 74% 30.03 in 10.0 mi SSW 3.5 mph - N/A   Clear
4:30 AM 30.4 °F - 23.0 °F 74% 30.03 in 10.0 mi Calm Calm - N/A   Clear
4:53 AM 28.6 °F - 23.4 °F 81% 30.03 in 10.0 mi Calm Calm - N/A   Clear
5:12 AM 28.6 °F 24.8 °F 23.4 °F 81% 30.04 in 10.0 mi South 3.5 mph - N/A   Clear
5:35 AM 29.5 °F 24.5 °F 23.0 °F 77% 30.04 in 10.0 mi South 4.6 mph - N/A   Clear
5:53 AM 29.7 °F 24.7 °F 23.4 °F 77% 30.04 in 10.0 mi SSW 4.6 mph - N/A   Clear
6:12 AM 28.8 °F - 22.8 °F 78% 30.05 in 10.0 mi Calm Calm - N/A   Clear
6:30 AM 28.9 °F - 22.3 °F 76% 30.05 in 10.0 mi Calm Calm - N/A   Clear
6:54 AM 27.7 °F - 22.3 °F 80% 30.05 in 10.0 mi Calm Calm - N/A   Clear
7:12 AM 26.8 °F - 21.4 °F 80% 30.05 in 10.0 mi Calm Calm - N/A   Clear
7:30 AM 27.0 °F 23.0 °F 22.1 °F 82% 30.05 in 10.0 mi South 3.5 mph - N/A   Clear
7:54 AM 30.0 °F - 24.4 °F 80% 30.07 in 10.0 mi Calm Calm - N/A   Clear
8:12 AM 32.0 °F - 26.8 °F 81% 30.07 in 10.0 mi Calm Calm - N/A   Clear
8:30 AM 34.7 °F - 27.7 °F 76% 30.07 in 10.0 mi Calm Calm - N/A   Clear
8:54 AM 40.5 °F - 27.9 °F 61% 30.08 in 10.0 mi Calm Calm - N/A   Clear
9:12 AM 43.7 °F - 27.1 °F 52% 30.08 in 10.0 mi Calm Calm - N/A   Clear
9:30 AM 46.9 °F - 22.6 °F 38% 30.08 in 10.0 mi Calm Calm - N/A   Clear
9:53 AM 50.2 °F - 22.6 °F 34% 30.09 in 10.0 mi Calm Calm - N/A   Clear
10:12 AM 52.0 °F - 23.0 °F 32% 30.08 in 10.0 mi NE 3.5 mph - N/A   Clear
10:30 AM 54.5 °F - 21.4 °F 28% 30.08 in 10.0 mi Calm Calm - N/A   Clear
10:54 AM 56.8 °F - 16.0 °F 20% 30.07 in 7.0 mi ENE 3.5 mph - N/A   Clear
11:12 AM 59.9 °F - 12.4 °F 15% 30.06 in 10.0 mi Calm Calm - N/A   Clear
11:53 AM 63.9 °F - 13.8 °F 14% 30.05 in 7.0 mi Calm Calm - N/A   Clear
12:11 PM 64.9 °F - 13.8 °F 14% 30.05 in 7.0 mi East 4.6 mph - N/A   Clear
12:35 PM 67.8 °F - 8.1 °F 10% 30.04 in 10.0 mi Calm Calm - N/A   Clear
12:52 PM 67.6 °F - 5.9 °F 9% 30.03 in 10.0 mi Calm Calm - N/A   Clear
1:35 PM 70.7 °F - 3.9 °F 7% 30.01 in 10.0 mi Calm Calm - N/A   Clear
1:52 PM 70.2 °F - 2.5 °F 7% 29.99 in 10.0 mi NNW 3.5 mph - N/A   Clear
2:12 PM 70.5 °F - 2.1 °F 7% 29.99 in 10.0 mi Calm Calm - N/A   Clear
2:35 PM 72.5 °F - 3.2 °F 7% 29.98 in 10.0 mi NNE 4.6 mph - N/A   Clear
2:53 PM 72.3 °F - 2.3 °F 6% 29.97 in 10.0 mi Calm Calm - N/A   Clear
3:12 PM 74.1 °F - 3.4 °F 6% 29.97 in 10.0 mi WSW 10.4 mph - N/A   Clear
3:36 PM 74.8 °F - 2.8 °F 6% 29.97 in 10.0 mi Calm Calm - N/A   Clear
3:54 PM 74.3 °F - 1.9 °F 6% 29.97 in 10.0 mi SSE 3.5 mph - N/A   Clear
4:12 PM 74.5 °F - 4.1 °F 6% 29.97 in 10.0 mi West 3.5 mph - N/A   Clear
4:36 PM 73.4 °F - 4.3 °F 7% 29.97 in 10.0 mi ESE 8.1 mph - N/A   Clear
4:55 PM 72.3 °F - 3.6 °F 7% 29.97 in 10.0 mi East 6.9 mph - N/A   Clear
5:12 PM 71.8 °F - 3.4 °F 7% 29.97 in 10.0 mi ESE 5.8 mph - N/A   Clear
5:36 PM 70.5 °F - 5.0 °F 8% 29.98 in 10.0 mi SE 3.5 mph - N/A   Clear
5:54 PM 69.4 °F - 5.2 °F 8% 29.98 in 10.0 mi East 3.5 mph - N/A   Clear
6:14 PM 66.4 °F - 7.7 °F 10% 29.98 in 10.0 mi ESE 5.8 mph - N/A   Clear
6:32 PM 65.5 °F - 6.6 °F 10% 29.98 in 10.0 mi East 3.5 mph - N/A   Clear
6:50 PM 59.5 °F - 12.7 °F 16% 29.99 in 10.0 mi East 4.6 mph - N/A   Clear
7:12 PM 52.9 °F - 18.7 °F 26% 29.99 in 10.0 mi Calm Calm - N/A   Clear
7:30 PM 48.6 °F - 20.7 °F 33% 30.01 in 10.0 mi SSW 6.9 mph - N/A   Clear
7:54 PM 49.3 °F - 19.4 °F 31% 30.01 in 10.0 mi Calm Calm - N/A   Clear
8:12 PM 46.0 °F - 21.7 °F 38% 30.01 in 10.0 mi Calm Calm - N/A   Clear
8:30 PM 44.4 °F 42.9 °F 21.2 °F 40% 30.01 in 10.0 mi SW 3.5 mph - N/A   Clear
8:54 PM 44.1 °F - 21.9 °F 42% 30.01 in 10.0 mi Calm Calm - N/A   Clear
9:12 PM 43.0 °F - 23.5 °F 46% 30.01 in 10.0 mi Calm Calm - N/A   Clear
9:30 PM 43.7 °F 42.1 °F 21.4 °F 41% 30.01 in 10.0 mi South 3.5 mph - N/A   Clear
9:54 PM 39.9 °F - 23.2 °F 51% 30.01 in 10.0 mi Calm Calm - N/A   Clear
10:12 PM 39.0 °F - 24.3 °F 55% 30.01 in 10.0 mi Calm Calm - N/A   Clear
10:30 PM 39.0 °F - 23.7 °F 54% 30.01 in 10.0 mi Calm Calm - N/A   Clear
10:54 PM 37.2 °F - 23.2 °F 57% 30.01 in 10.0 mi Calm Calm - N/A   Clear
11:12 PM 37.8 °F 34.2 °F 22.6 °F 54% 30.00 in 10.0 mi South 4.6 mph - N/A   Clear
11:30 PM 36.0 °F - 23.5 °F 61% 30.00 in 10.0 mi Calm Calm - N/A   Clear
11:54 PM 34.7 °F 30.6 °F 23.0 °F 62% 30.00 in 10.0 mi South 4.6 mph - N/A   Clear